• Join FlightAware (Why Join?)
  • Login
  • US Flag 
06:22AM EDT


 

Airport Tracker/Info


-or-


 

Live Flight TrackerFlight Track Log ✈ EJA982 ✈ 21-May-2013 ✈ KPNE - KSUA

Flight Track Log - Related Links

Times and Time Zones

All times are in EDT time to prevent confusion due to time zone crossing. See the EJA982 flight status page for this flight to view local times or setup timezone preferences in your user account.

Time Position Orientation Groundspeed Altitude Reporting Facility
EDT Latitude Longitude Course Direction KTS MPH feet Rate Location/Type
03:42PM 40.0667 -75.0333 303° West 167 192 1,100  Level Philadelphia TRACON
03:43PM 40.0833 -75.0667 303° West 232 267 2,600 2,340 Climbing Philadelphia TRACON
03:44PM 40.1167 -75.0167 49° Northeast 257 296 5,100 2,040 Climbing Philadelphia TRACON
03:45PM 40.0500 -74.9500 143° Southeast 289 333 7,000 1,980 Climbing Philadelphia TRACON
03:46PM 39.9667 -74.9667 189° South 294 338 9,300 1,440 Climbing Philadelphia TRACON
03:47PM 39.9167 -75.0333 226° Southwest 302 348 10,000 180 Climbing Philadelphia TRACON
03:49PM 39.8192 -75.1756 228° Southwest 306 352 9,900 -60 Descending Washington Center
03:50PM 39.7714 -75.2622 234° Southwest 306 352 9,900  Level Washington Center
03:51PM 39.6986 -75.2867 194° South 288 331 9,900 360 Level Washington Center
03:52PM 39.6172 -75.3061 190° South 283 326 10,700 960 Climbing Washington Center
03:53PM 39.5278 -75.3225 188° South 306 352 11,900 1,260 Climbing Washington Center
03:54PM 39.4403 -75.3389 188° South 319 367 13,300 1,320 Climbing Washington Center
03:55PM 39.3403 -75.3581 188° South 339 390 14,600 1,740 Climbing Washington Center
03:56PM 39.2361 -75.3744 187° South 366 421 16,800 1,920 Climbing Washington Center
03:57PM 39.1278 -75.3936 188° South 387 445 18,500 1,500 Climbing Washington Center
03:58PM 39.0175 -75.4125 188° South 392 451 19,900 1,440 Climbing Washington Center
03:59PM 38.9028 -75.4317 187° South 409 471 21,400 1,440 Climbing Washington Center
04:00PM 38.7861 -75.4478 186° South 416 479 22,900 1,260 Climbing Washington Center
04:01PM 38.6692 -75.4642 186° South 426 490 24,000 1,320 Climbing Washington Center
04:02PM 38.5464 -75.4828 187° South 431 496 25,600 1,440 Climbing Washington Center
04:03PM 38.4358 -75.5333 200° South 431 496 26,900 1,320 Climbing Washington Center
04:04PM 38.3253 -75.5997 205° Southwest 429 494 28,300 1,380 Climbing Washington Center
04:05PM 38.2106 -75.6631 203° Southwest 441 507 29,700 1,200 Climbing Washington Center
04:06PM 38.1000 -75.7317 206° Southwest 441 507 30,700 1,800 Climbing Washington Center
04:07PM 37.9811 -75.8131 208° Southwest 446 513 33,400 2,280 Climbing Washington Center
04:08PM 37.8831 -75.8628 202° Southwest 441 507 35,300 1,860 Climbing Washington Center
04:09PM 37.7681 -75.9411 208° Southwest 426 490 37,200 1,560 Climbing Washington Center
04:10PM 37.6572 -76.0036 204° Southwest 426 490 38,500 1,320 Climbing Washington Center
04:11PM 37.5508 -76.0686 206° Southwest 431 496 39,900 720 Climbing Washington Center
04:12PM 37.4358 -76.1358 205° Southwest 439 505 40,000  Climbing Washington Center
04:13PM 37.3269 -76.1925 202° Southwest 455 524 40,000  Level Washington Center
04:14PM 37.2056 -76.2647 205° Southwest 474 545 40,000  Level Washington Center
04:15PM 37.0800 -76.3392 205° Southwest 487 560 40,000  Level Washington Center
04:16PM 36.9544 -76.4106 204° Southwest 493 567 40,000  Level Washington Center
04:17PM 36.8286 -76.4872 206° Southwest 493 567 40,000  Level Washington Center
04:18PM 36.7092 -76.5661 208° Southwest 498 573 40,000  Level Washington Center
04:19PM 36.5894 -76.6447 208° Southwest 493 567 40,000  Level Washington Center
04:20PM 36.4658 -76.7156 205° Southwest 488 562 40,000  Level Washington Center
04:21PM 36.3400 -76.7858 204° Southwest 493 567 40,000  Level Washington Center
04:22PM 36.2142 -76.8561 204° Southwest 493 567 40,000  Level Washington Center
04:23PM 36.0903 -76.9261 205° Southwest 498 573 40,000  Level Washington Center
04:24PM 35.9622 -76.9931 203° Southwest 498 573 40,000  Level Washington Center
04:25PM 35.8361 -77.0628 204° Southwest 498 573 40,000  Level Washington Center
04:26PM 35.7142 -77.1347 206° Southwest 498 573 40,000  Level Washington Center
04:27PM 35.5903 -77.2011 204° Southwest 493 567 40,000  Level Washington Center
04:28PM 35.4683 -77.2703 205° Southwest 488 562 40,000  Level Washington Center
04:29PM 35.3442 -77.3364 203° Southwest 488 562 40,000  Level Washington Center
04:30PM 35.2181 -77.4072 205° Southwest 488 562 40,100 300 Climbing Washington Center
04:31PM 35.0897 -77.4756 204° Southwest 488 562 40,600 540 Climbing Washington Center
04:32PM 34.9697 -77.5411 204° Southwest 488 562 41,200 540 Climbing Washington Center
04:33PM 34.8433 -77.6089 204° Southwest 488 562 41,700 480 Climbing Washington Center
04:34PM 34.7044 -77.6814 203° Southwest 488 562 42,200 480 Climbing Washington Center
04:35PM 34.5681 -77.7208 193° South 495 570 42,700 360 Climbing Washington Center
04:36PM 34.4339 -77.7625 194° South 502 578 43,000 120 Climbing Washington Center
04:37PM 34.2975 -77.8067 195° South 502 578 43,000  Level Washington Center
04:39PM 34.0211 -77.8917 194° South 538 619 43,000  Level Jacksonville Center
04:40PM 33.8831 -77.9372 195° South 533 613 43,000  Level Jacksonville Center
04:41PM 33.7447 -77.9775 194° South 521 600 43,000  Level Jacksonville Center
04:42PM 33.6028 -78.0253 196° South 521 600 43,000  Level Jacksonville Center
04:43PM 33.4667 -78.0700 195° South 521 600 43,000  Level Jacksonville Center
04:44PM 33.3286 -78.1122 194° South 521 600 43,000  Level Jacksonville Center
04:45PM 33.1881 -78.1519 193° South 521 600 43,000  Level Jacksonville Center
04:46PM 33.0519 -78.1964 195° South 521 600 43,000  Level Jacksonville Center
04:47PM 32.9117 -78.2383 194° South 521 600 43,000  Level Jacksonville Center
04:48PM 32.7756 -78.2850 196° South 521 600 43,000  Level Jacksonville Center
04:49PM 32.6350 -78.3192 192° South 521 600 43,000  Level Jacksonville Center
04:50PM 32.4947 -78.3683 196° South 521 600 43,000  Level Jacksonville Center
04:51PM 32.3542 -78.4072 193° South 526 605 43,000  Level Jacksonville Center
04:52PM 32.2306 -78.4500 196° South 519 597 43,000  Level Jacksonville Center
04:53PM 32.0922 -78.4961 196° South 525 604 43,000  Level Jacksonville Center
04:54PM 31.9375 -78.5450 195° South 525 604 43,000  Level Jacksonville Center
04:55PM 31.7969 -78.5858 194° South 530 610 43,000  Level Jacksonville Center
04:56PM 31.6544 -78.6292 195° South 530 610 43,000  Level Jacksonville Center
04:57PM 31.5139 -78.6719 195° South 525 604 43,000  Level Jacksonville Center
04:58PM 31.3733 -78.7125 194° South 534 615 43,000  Level Jacksonville Center
04:59PM 31.2328 -78.7553 195° South 527 606 43,000  Level Jacksonville Center
05:00PM 31.0922 -78.7978 195° South 527 606 43,000  Level Jacksonville Center
05:01PM 30.9681 -78.8347 194° South 527 606 43,000  Level Jacksonville Center
05:02PM 30.8231 -78.8747 193° South 527 606 43,000  Level Jacksonville Center
05:03PM 30.6764 -78.9172 194° South 532 612 43,000  Level Jacksonville Center
05:04PM 30.5397 -78.9589 195° South 532 612 43,000  Level Jacksonville Center
05:05PM 30.4164 -78.9961 195° South 538 619 43,000  Level Miami Center
05:06PM 30.2883 -79.0558 202° Southwest 533 613 43,000  Level Miami Center
05:07PM 30.1478 -79.1131 199° South 526 605 43,000  Level Miami Center
05:08PM 30.0008 -79.1747 200° South 526 605 43,000  Level Miami Center
05:09PM 29.8811 -79.2367 204° Southwest 526 605 43,000  Level Miami Center
05:10PM 29.7447 -79.2933 200° South 526 605 43,000  Level Miami Center
05:11PM 29.6100 -79.3525 201° Southwest 526 605 43,000 -600 Level Miami Center
05:12PM 29.4736 -79.4064 199° South 526 605 41,900 -1,320 Descending Miami Center
05:13PM 29.3411 -79.4653 201° Southwest 521 600 40,400 -1,500 Descending Miami Center
05:14PM 29.2022 -79.5261 201° Southwest 521 600 38,900 -1,500 Descending Miami Center
05:15PM 29.0636 -79.5797 199° South 526 605 37,400 -1,560 Descending Miami Center
05:16PM 28.9272 -79.6239 196° South 526 605 35,800 -1,560 Descending Miami Center
05:17PM 28.8008 -79.6894 204° Southwest 514 592 34,300 -1,500 Descending Miami Center
05:18PM 28.6925 -79.7836 217° Southwest 498 573 32,800 -1,500 Descending Miami Center
05:19PM 28.5819 -79.8778 217° Southwest 498 573 31,300 -1,560 Descending Miami Center
05:20PM 28.4536 -79.9333 201° Southwest 493 567 29,700 -1,860 Descending Miami Center
05:21PM 28.2983 -79.9619 189° South 506 582 27,600 -2,700 Descending Miami Center
05:22PM 28.1622 -79.9867 189° South 511 588 24,400 -3,000 Descending Miami Center
05:23PM 28.0325 -80.0042 187° South 488 562 21,600 -2,100 Descending Miami Center
05:24PM 27.9178 -79.9914 174° South 459 528 20,200 -1,500 Descending Miami Center
05:25PM 27.7844 -79.9831 177° South 464 534 18,700 -1,860 Descending Miami Center
05:26PM 27.6575 -79.9681 174° South 436 502 16,500 -1,920 Descending Miami Center
05:27PM 27.5639 -79.9514 171° South 505 581 14,900 -2,400 Descending Miami Center
05:28PM 27.4389 -79.9411 176° South 432 497 11,800 -3,060 Descending Miami Center
05:29PM 27.3614 -79.9436 182° South 337 388 8,800 -3,000 Descending Miami Center
05:30PM 27.2800 -79.9414 179° South 292 336 5,800 -2,400 Descending Miami Center
05:31PM 27.2392 -80.0058 235° Southwest 233 268 4,100 -900 Descending Miami Center
05:32PM 27.2456 -80.0925 275° West 256 295 4,000 -540 Descending Miami Center
05:33PM 27.2353 -80.1739 262° West 267 307 3,100 -1,200 Descending Miami Center
05:34PM 27.2256 -80.2367 260° West 248 285 1,600 -1,260 Descending Miami Center
05:35PM 27.1936 -80.2567 209° Southwest 166 191 600 -660 Descending Miami Center
05:36PM 27.1725 -80.2678 205° Southwest 124 143 300 -300 Descending Miami Center